Time;durP1;ratioP1;P1;durP2;ratioP2;P2;SDS_P1;SDS_P2;PMS_P1;PMS_P2;Temp;Humidity;BMP_temperature;BMP_pressure;BME280_temperature;BME280_humidity;BME280_pressure;Samples;Min_cycle;Max_cycle;Signal;HPM_P1;HPM_P2
2023/03/07 00:01:44;;;;;;;11.93;7.55;;;;;;;6.09;100.00;92392.00;5068643;28;20546;-70
2023/03/07 00:04:12;;;;;;;11.70;7.05;;;;;;;6.07;100.00;92381.22;5068767;28;20098;-70
2023/03/07 00:06:39;;;;;;;11.23;7.43;;;;;;;6.04;100.00;92384.16;5068812;28;20074;-70
2023/03/07 00:09:06;;;;;;;12.57;7.10;;;;;;;6.05;100.00;92389.06;5068876;28;20117;-70
2023/03/07 00:11:33;;;;;;;13.43;7.70;;;;;;;6.05;100.00;92383.97;5068948;28;20051;-70
2023/03/07 00:13:59;;;;;;;12.07;7.57;;;;;;;6.05;100.00;92386.53;5068565;28;20452;-70
2023/03/07 00:16:26;;;;;;;13.20;8.15;;;;;;;6.03;100.00;92385.94;5068633;28;20052;-70
2023/03/07 00:18:54;;;;;;;15.10;8.05;;;;;;;6.03;100.00;92380.06;5068662;28;20049;-71
2023/03/07 00:21:22;;;;;;;14.23;8.38;;;;;;;6.10;100.00;92391.00;5063959;28;20550;-70
2023/03/07 00:23:52;;;;;;;15.38;8.68;;;;;;;6.05;100.00;92378.88;5068261;28;20091;-70
2023/03/07 00:26:21;;;;;;;15.32;8.60;;;;;;;5.98;100.00;92371.22;5068503;28;20098;-71
2023/03/07 00:28:49;;;;;;;14.40;8.63;;;;;;;5.96;100.00;92363.00;5067764;28;20094;-70
2023/03/07 00:31:16;;;;;;;14.75;8.88;;;;;;;6.13;100.00;92386.31;5068523;28;20044;-71
2023/03/07 00:33:44;;;;;;;14.38;8.73;;;;;;;6.13;100.00;92385.50;5068469;28;20040;-71
2023/03/07 00:36:13;;;;;;;16.42;9.13;;;;;;;6.11;100.00;92388.25;5068556;28;20048;-70
2023/03/07 00:38:42;;;;;;;18.80;9.93;;;;;;;6.08;100.00;92383.59;5068058;28;20052;-70
2023/03/07 00:41:10;;;;;;;15.77;10.25;;;;;;;6.08;100.00;92383.59;5068347;28;20048;-70
2023/03/07 00:43:37;;;;;;;19.00;10.88;;;;;;;6.05;100.00;92380.63;5069647;28;20044;-71
2023/03/07 00:46:05;;;;;;;22.50;13.50;;;;;;;6.04;100.00;92384.97;5072658;28;20098;-70
2023/03/07 00:48:33;;;;;;;19.33;12.32;;;;;;;5.98;100.00;92378.09;5072453;28;20054;-70
2023/03/07 00:51:00;;;;;;;17.52;11.50;;;;;;;5.95;100.00;92374.19;5071943;28;20048;-70
2023/03/07 00:53:27;;;;;;;20.40;12.05;;;;;;;5.97;100.00;92374.00;5072201;28;20052;-70
2023/03/07 00:55:57;;;;;;;19.50;11.80;;;;;;;5.98;100.00;92370.44;5071754;28;20048;-70
2023/03/07 00:58:25;;;;;;;19.80;11.70;;;;;;;5.95;100.00;92360.66;5060069;28;20090;-70
2023/03/07 01:00:51;;;;;;;18.88;10.77;;;;;;;5.91;100.00;92357.72;5072059;28;20125;-70
2023/03/07 01:03:19;;;;;;;16.15;9.88;;;;;;;5.89;100.00;92350.25;5071981;28;20090;-70
2023/03/07 01:05:46;;;;;;;18.10;10.15;;;;;;;5.85;100.00;92341.47;5071509;28;20098;-70
2023/03/07 01:08:13;;;;;;;15.32;8.75;;;;;;;5.83;100.00;92342.66;5071924;28;20447;-70
2023/03/07 01:10:40;;;;;;;14.00;9.25;;;;;;;5.84;100.00;92345.00;5058348;28;20046;-71
2023/03/07 01:13:08;;;;;;;15.38;9.50;;;;;;;5.80;100.00;92343.84;5072058;28;20185;-70
2023/03/07 01:15:35;;;;;;;15.13;9.55;;;;;;;5.79;100.00;92336.41;5071279;28;20052;-70
2023/03/07 01:18:02;;;;;;;14.13;9.63;;;;;;;5.80;100.00;92343.84;5071639;28;20443;-70
2023/03/07 01:20:31;;;;;;;13.73;9.18;;;;;;;5.81;100.00;92344.63;5070976;28;20049;-71
2023/03/07 01:22:57;;;;;;;14.13;9.13;;;;;;;5.80;100.00;92335.41;5067421;28;20059;-72
2023/03/07 01:25:24;;;;;;;14.38;9.50;;;;;;;5.58;100.00;92300.00;5071820;28;20098;-71
2023/03/07 01:27:51;;;;;;;14.68;9.95;;;;;;;5.84;100.00;92331.47;5071667;28;20082;-71
2023/03/07 01:30:20;;;;;;;13.70;9.45;;;;;;;5.86;100.00;92335.41;5068475;28;20052;-71
2023/03/07 01:32:47;;;;;;;17.02;10.05;;;;;;;5.87;100.00;92334.41;5070454;28;20048;-71
2023/03/07 01:35:14;;;;;;;14.60;9.63;;;;;;;5.74;100.00;92319.94;5071969;28;20044;-71
2023/03/07 01:37:41;;;;;;;13.95;8.82;;;;;;;5.92;100.00;92338.13;5071107;28;20097;-71
2023/03/07 01:40:09;;;;;;;16.98;9.75;;;;;;;5.87;100.00;92326.75;5070770;28;20048;-72
2023/03/07 01:42:36;;;;;;;14.32;9.00;;;;;;;5.95;100.00;92333.41;5071747;28;20535;-71
2023/03/07 01:45:07;;;;;;;14.48;9.90;;;;;;;5.95;100.00;92332.59;5071159;28;20044;-71
2023/03/07 01:47:35;;;;;;;13.93;9.13;;;;;;;6.00;100.00;92328.47;5071729;28;21386;-71
2023/03/07 01:50:04;;;;;;;14.48;9.07;;;;;;;5.97;100.00;92326.31;5070475;28;20489;-70
2023/03/07 01:52:34;;;;;;;12.77;9.57;;;;;;;5.94;100.00;92316.53;5067914;28;20612;-71
2023/03/07 01:55:05;;;;;;;16.73;9.63;;;;;;;5.96;100.00;92322.22;5070062;28;20557;-71
2023/03/07 01:57:35;;;;;;;13.55;8.52;;;;;;;5.96;100.00;92304.38;5070569;28;20489;-70
2023/03/07 02:00:10;;;;;;;12.55;8.60;;;;;;;5.98;100.00;92312.59;5070550;28;20497;-71
2023/03/07 02:02:40;;;;;;;14.10;8.20;;;;;;;5.96;100.00;92311.22;5065696;28;20044;-71
2023/03/07 02:05:11;;;;;;;13.50;8.35;;;;;;;5.85;100.00;92294.81;5070576;28;20080;-70
2023/03/07 02:07:44;;;;;;;12.70;8.43;;;;;;;6.05;100.00;92311.78;5070650;28;20060;-70
2023/03/07 02:10:12;;;;;;;12.70;8.70;;;;;;;5.98;100.00;92299.06;5070448;28;20129;-70
2023/03/07 02:12:40;;;;;;;12.48;8.23;;;;;;;6.07;100.00;92308.06;5070488;28;20522;-70
2023/03/07 02:15:09;;;;;;;13.52;8.73;;;;;;;6.08;100.00;92303.75;5069993;28;20500;-70
2023/03/07 02:17:36;;;;;;;13.27;7.65;;;;;;;6.01;100.00;92288.44;5070085;28;20101;-71
2023/03/07 02:20:21;;;;;;;11.77;7.45;;;;;;;6.06;100.00;92293.00;5069922;28;20083;-70
2023/03/07 02:22:49;;;;;;;11.57;7.50;;;;;;;6.13;100.00;92306.47;5069795;28;20044;-71
2023/03/07 02:25:22;;;;;;;11.15;7.60;;;;;;;6.08;100.00;92293.56;5070348;28;20052;-70
2023/03/07 02:27:53;;;;;;;11.88;8.15;;;;;;;6.15;100.00;92299.38;5070067;28;20927;-70
2023/03/07 02:30:20;;;;;;;11.48;7.88;;;;;;;6.19;100.00;92303.09;5069687;28;20455;-70
2023/03/07 02:32:47;;;;;;;13.70;7.72;;;;;;;6.19;100.00;92295.44;5059648;28;20122;-71
2023/03/07 02:35:15;;;;;;;10.60;7.63;;;;;;;6.18;100.00;92301.53;5055865;28;20145;-71
2023/03/07 02:37:45;;;;;;;12.63;7.93;;;;;;;6.18;100.00;92303.31;5070003;28;20614;-72
2023/03/07 02:40:15;;;;;;;14.75;7.22;;;;;;;6.05;100.00;92279.44;5069876;28;20052;-72
2023/03/07 02:42:43;;;;;;;12.23;7.00;;;;;;;6.23;100.00;92306.03;5070174;28;20049;-72
2023/03/07 02:45:14;;;;;;;10.40;7.28;;;;;;;6.20;100.00;92291.91;5069643;28;20110;-72
2023/03/07 02:47:41;;;;;;;15.23;8.25;;;;;;;6.21;100.00;92296.03;5069547;28;20067;-72
2023/03/07 02:50:09;;;;;;;12.25;7.68;;;;;;;6.19;100.00;92292.91;5069689;28;20044;-72
2023/03/07 02:52:36;;;;;;;10.93;7.28;;;;;;;6.16;100.00;92288.22;5069735;28;20110;-72
2023/03/07 02:55:03;;;;;;;11.88;7.57;;;;;;;6.18;100.00;92299.00;5054892;28;20048;-71
2023/03/07 02:57:30;;;;;;;13.43;7.47;;;;;;;6.26;100.00;92295.41;5050332;28;20044;-70
2023/03/07 02:59:57;;;;;;;13.23;8.10;;;;;;;6.30;100.00;92295.78;5050313;28;20413;-71
2023/03/07 03:02:25;;;;;;;11.10;7.32;;;;;;;6.30;100.00;92298.34;5050198;28;20146;-72
2023/03/07 03:04:52;;;;;;;10.95;6.93;;;;;;;6.32;100.00;92298.91;5063698;28;20060;-71
2023/03/07 03:07:19;;;;;;;12.32;7.18;;;;;;;6.33;100.00;92301.25;5069692;28;20094;-71
2023/03/07 03:09:45;;;;;;;13.75;6.90;;;;;;;6.36;100.00;92302.63;5070093;28;20094;-72
2023/03/07 03:12:12;;;;;;;13.35;7.05;;;;;;;6.34;100.00;92307.91;5069667;28;20040;-71
2023/03/07 03:14:39;;;;;;;14.50;7.25;;;;;;;6.35;100.00;92301.81;5069602;28;20079;-71
2023/03/07 03:17:05;;;;;;;12.15;6.93;;;;;;;6.40;100.00;92303.78;5066260;28;20559;-71
2023/03/07 03:19:33;;;;;;;12.18;7.32;;;;;;;6.38;100.00;92303.19;5049582;28;20095;-71
2023/03/07 03:22:00;;;;;;;12.93;7.15;;;;;;;6.34;100.00;92294.41;5049444;28;20509;-71
2023/03/07 03:24:27;;;;;;;9.98;6.63;;;;;;;6.36;100.00;92303.41;5049547;28;20118;-71
2023/03/07 03:26:56;;;;;;;10.75;6.80;;;;;;;6.39;100.00;92302.97;5049748;28;20103;-71
2023/03/07 03:29:25;;;;;;;11.13;6.72;;;;;;;6.36;100.00;92305.16;5058615;28;20417;-72
2023/03/07 03:31:52;;;;;;;12.68;6.78;;;;;;;6.39;100.00;92309.88;5069538;28;20048;-71
2023/03/07 03:34:18;;;;;;;11.57;6.78;;;;;;;6.40;100.00;92312.19;5069594;28;20040;-72
2023/03/07 03:36:47;;;;;;;13.45;7.03;;;;;;;6.41;100.00;92311.22;5069250;28;20080;-71
2023/03/07 03:39:13;;;;;;;11.07;6.75;;;;;;;6.41;100.00;92313.78;5069229;28;20044;-72
2023/03/07 03:41:40;;;;;;;11.38;6.82;;;;;;;6.39;100.00;92309.88;5069527;28;20073;-72
2023/03/07 03:44:07;;;;;;;12.32;6.95;;;;;;;6.39;100.00;92314.97;5069261;28;20129;-72
2023/03/07 03:46:34;;;;;;;12.73;7.55;;;;;;;6.24;100.00;92287.97;5069588;28;20125;-71
2023/03/07 03:49:01;;;;;;;11.05;6.43;;;;;;;6.39;100.00;92305.53;5069254;28;20044;-72
2023/03/07 03:51:28;;;;;;;12.32;7.18;;;;;;;6.39;100.00;92307.31;5069071;28;20041;-71
2023/03/07 03:53:57;;;;;;;12.05;7.10;;;;;;;5.73;100.00;92218.22;5069398;28;20052;-71
2023/03/07 03:56:25;;;;;;;13.93;6.88;;;;;;;6.45;100.00;92310.81;5069300;28;20122;-71
2023/03/07 03:58:54;;;;;;;11.63;6.78;;;;;;;6.48;100.00;92312.94;5069084;28;20078;-71
2023/03/07 04:01:22;;;;;;;12.70;6.43;;;;;;;6.26;100.00;92287.78;5068849;28;20045;-72
2023/03/07 04:03:51;;;;;;;14.00;7.75;;;;;;;6.39;100.00;92302.22;5069158;28;20041;-71
2023/03/07 04:06:22;;;;;;;14.10;7.88;;;;;;;6.43;100.00;92305.91;5069305;28;20048;-71
2023/03/07 04:08:50;;;;;;;13.50;7.63;;;;;;;6.41;100.00;92310.44;5069192;28;20051;-71
2023/03/07 04:11:19;;;;;;;12.00;7.68;;;;;;;6.43;100.00;92310.22;5068923;28;20044;-71
2023/03/07 04:13:46;;;;;;;13.07;7.05;;;;;;;6.41;100.00;92316.31;5069111;28;20534;-71
2023/03/07 04:16:13;;;;;;;10.55;6.85;;;;;;;6.43;100.00;92318.66;5069340;28;20072;-71
2023/03/07 04:18:39;;;;;;;12.63;7.82;;;;;;;6.41;100.00;92307.88;5070008;28;20446;-71
2023/03/07 04:21:07;;;;;;;13.25;7.45;;;;;;;6.38;100.00;92315.94;5073101;28;20057;-71
2023/03/07 04:23:34;;;;;;;13.65;7.20;;;;;;;6.37;100.00;92316.94;5072848;28;20641;-71
2023/03/07 04:26:02;;;;;;;18.38;7.70;;;;;;;6.36;100.00;92321.25;5072863;28;20094;-71
2023/03/07 04:31:16;;;;;;;12.35;7.22;;;;;;;6.34;100.00;92320.66;5049380;28;20052;-72
2023/03/07 04:33:43;;;;;;;16.17;7.70;;;;;;;6.36;100.00;92328.13;5052927;28;20093;-71
2023/03/07 04:36:11;;;;;;;12.85;8.27;;;;;;;6.38;100.00;92331.25;5052506;28;20088;-71
2023/03/07 04:38:39;;;;;;;12.50;7.03;;;;;;;6.25;100.00;92322.69;5052790;28;20045;-71
2023/03/07 04:41:06;;;;;;;12.68;7.82;;;;;;;6.29;100.00;92330.69;5052800;28;20068;-72
2023/03/07 04:43:34;;;;;;;14.70;6.70;;;;;;;6.24;100.00;92323.66;5052724;28;20080;-71
2023/03/07 04:46:01;;;;;;;11.85;7.03;;;;;;;6.31;100.00;92333.06;5042994;28;20049;-71
2023/03/07 04:48:28;;;;;;;12.52;7.18;;;;;;;6.30;100.00;92342.50;5036883;28;20045;-71
2023/03/07 04:50:54;;;;;;;11.02;7.00;;;;;;;6.29;100.00;92333.25;5072047;28;20550;-71
2023/03/07 04:53:21;;;;;;;11.55;7.28;;;;;;;6.23;100.00;92337.41;5072631;28;20044;-70
2023/03/07 04:55:48;;;;;;;13.07;7.15;;;;;;;6.24;100.00;92331.31;5072426;28;20554;-70
2023/03/07 04:58:15;;;;;;;11.38;6.35;;;;;;;6.25;100.00;92329.56;5072564;28;20040;-70
2023/03/07 05:00:44;;;;;;;12.25;7.20;;;;;;;6.22;100.00;92332.50;5072492;28;20041;-70
2023/03/07 05:03:12;;;;;;;11.82;7.20;;;;;;;6.15;100.00;92330.00;5071942;28;20510;-71
2023/03/07 05:05:39;;;;;;;11.45;7.30;;;;;;;6.21;100.00;92344.47;5072133;28;20098;-71
2023/03/07 05:08:06;;;;;;;14.25;7.15;;;;;;;6.14;100.00;92344.53;5072206;28;20110;-70
2023/03/07 05:10:34;;;;;;;10.23;7.00;;;;;;;5.92;100.00;92299.88;5071922;28;20538;-70
2023/03/07 05:13:01;;;;;;;16.23;8.75;;;;;;;6.15;100.00;92340.19;5072129;28;20099;-70
2023/03/07 05:15:28;;;;;;;15.18;8.45;;;;;;;6.18;100.00;92339.78;5071730;28;20472;-70
2023/03/07 05:17:56;;;;;;;15.00;8.80;;;;;;;6.21;100.00;92343.72;5071801;28;20126;-70
2023/03/07 05:20:22;;;;;;;16.58;8.52;;;;;;;6.24;100.00;92349.19;5072044;28;20041;-70
2023/03/07 05:22:49;;;;;;;15.43;8.65;;;;;;;6.22;100.00;92342.72;5071853;28;20053;-71
2023/03/07 05:25:16;;;;;;;17.30;11.00;;;;;;;6.27;100.00;92335.22;5071549;28;20048;-71
2023/03/07 05:27:43;;;;;;;17.40;8.40;;;;;;;6.26;100.00;92343.88;5071742;28;20099;-71
2023/03/07 05:30:11;;;;;;;12.20;8.00;;;;;;;6.30;100.00;92346.78;5065485;28;20090;-72
2023/03/07 05:32:38;;;;;;;14.25;7.97;;;;;;;6.35;100.00;92345.19;5071705;28;20044;-72
2023/03/07 05:35:08;;;;;;;15.93;8.45;;;;;;;6.38;100.00;92347.34;5071409;28;20053;-71
2023/03/07 05:37:34;;;;;;;13.00;7.85;;;;;;;6.41;100.00;92351.25;5071650;28;20509;-71
2023/03/07 05:40:03;;;;;;;14.50;8.52;;;;;;;6.40;100.00;92350.44;5071532;28;20102;-71
2023/03/07 05:42:30;;;;;;;11.20;7.60;;;;;;;6.45;100.00;92351.63;5052830;28;20107;-71
2023/03/07 05:44:56;;;;;;;13.57;8.05;;;;;;;6.50;100.00;92356.88;5051576;28;20095;-71
2023/03/07 05:47:23;;;;;;;13.68;7.90;;;;;;;6.53;100.00;92349.59;5051447;28;20045;-71
2023/03/07 05:49:50;;;;;;;12.48;7.22;;;;;;;6.51;100.00;92358.44;5050961;28;20049;-71
2023/03/07 05:52:19;;;;;;;10.88;6.38;;;;;;;6.50;100.00;92349.22;5051318;28;20037;-71
2023/03/07 05:54:46;;;;;;;10.95;6.38;;;;;;;6.54;100.00;92358.81;5051150;28;20059;-70
2023/03/07 05:57:12;;;;;;;11.15;6.60;;;;;;;6.56;100.00;92353.50;5051453;28;20045;-70
2023/03/07 05:59:39;;;;;;;11.18;6.65;;;;;;;6.57;100.00;92357.63;5051461;28;20154;-70
2023/03/07 06:02:06;;;;;;;11.00;6.43;;;;;;;6.60;100.00;92352.13;5051347;28;20084;-71
2023/03/07 06:04:32;;;;;;;10.10;6.93;;;;;;;6.63;100.00;92350.94;5050928;28;20505;-72
2023/03/07 06:06:59;;;;;;;12.13;6.63;;;;;;;6.67;100.00;92357.94;5051036;28;20088;-71
2023/03/07 06:09:27;;;;;;;11.55;6.63;;;;;;;6.70;100.00;92364.41;5050910;28;20092;-71
2023/03/07 06:11:54;;;;;;;11.70;7.47;;;;;;;6.68;100.00;92362.06;5051228;28;20041;-71
2023/03/07 06:14:20;;;;;;;9.75;6.15;;;;;;;6.75;100.00;92367.13;5050757;28;20099;-71
2023/03/07 06:16:47;;;;;;;11.50;6.40;;;;;;;6.82;100.00;92365.31;5050726;28;20564;-71
2023/03/07 06:19:14;;;;;;;11.63;6.68;;;;;;;6.83;100.00;92358.44;5050949;28;20041;-71
2023/03/07 06:21:42;;;;;;;13.75;6.65;;;;;;;6.82;100.00;92360.19;5050928;28;20128;-71
2023/03/07 06:24:09;;;;;;;11.35;7.05;;;;;;;6.89;100.00;92362.72;5050632;28;20041;-71
2023/03/07 06:26:37;;;;;;;10.80;6.70;;;;;;;6.94;100.00;92367.19;5050907;28;20142;-71
2023/03/07 06:29:04;;;;;;;11.93;6.18;;;;;;;6.94;100.00;92357.78;5056459;28;20482;-70
2023/03/07 06:31:31;;;;;;;11.70;7.03;;;;;;;7.00;100.00;92356.16;5070751;28;20090;-71
2023/03/07 06:33:57;;;;;;;11.82;6.78;;;;;;;6.98;100.00;92358.13;5047759;28;20049;-71
2023/03/07 06:36:24;;;;;;;10.15;6.35;;;;;;;7.03;100.00;92368.50;5050933;28;20397;-71
2023/03/07 06:38:51;;;;;;;10.90;6.75;;;;;;;7.03;100.00;92370.28;5050418;28;20136;-71
2023/03/07 06:41:17;;;;;;;11.65;6.68;;;;;;;7.05;100.00;92358.84;5050003;28;20037;-71
2023/03/07 06:43:46;;;;;;;13.32;6.78;;;;;;;7.11;100.00;92367.47;5050563;28;20045;-71
2023/03/07 06:46:12;;;;;;;11.77;6.55;;;;;;;7.13;100.00;92362.16;5050110;28;20040;-72
2023/03/07 06:48:39;;;;;;;12.57;6.85;;;;;;;7.18;100.00;92363.06;5050455;28;20045;-72
2023/03/07 06:51:07;;;;;;;12.63;6.90;;;;;;;7.29;100.00;92363.38;5055097;28;20052;-73
2023/03/07 06:53:36;;;;;;;11.60;7.45;;;;;;;7.33;100.00;92354.31;5070613;28;20048;-72
2023/03/07 06:56:03;;;;;;;12.88;6.65;;;;;;;7.41;100.00;92358.38;5070259;28;20105;-71
2023/03/07 06:58:30;;;;;;;11.20;6.47;;;;;;;7.49;100.00;92360.66;5069878;28;20044;-71
2023/03/07 07:00:58;;;;;;;10.52;6.53;;;;;;;7.55;100.00;92367.47;5070166;28;20413;-72
2023/03/07 07:03:25;;;;;;;10.75;6.88;;;;;;;7.62;100.00;92360.53;5070011;28;20143;-72
2023/03/07 07:05:51;;;;;;;12.07;6.15;;;;;;;7.70;100.00;92363.78;5069980;28;20044;-72
2023/03/07 07:08:21;;;;;;;10.77;6.28;;;;;;;7.77;100.00;92366.28;5070125;28;20102;-72
2023/03/07 07:10:48;;;;;;;13.18;7.07;;;;;;;7.83;100.00;92360.31;5069814;28;20051;-72
2023/03/07 07:13:15;;;;;;;16.67;7.13;;;;;;;7.98;100.00;92368.41;5070029;28;20055;-71
2023/03/07 07:15:41;;;;;;;12.85;6.15;;;;;;;8.08;99.97;92367.13;5070129;28;20137;-72
2023/03/07 07:18:11;;;;;;;11.93;6.97;;;;;;;8.15;99.59;92363.50;5069698;28;20467;-71
2023/03/07 07:20:38;;;;;;;12.45;7.15;;;;;;;8.24;98.65;92361.41;5069744;28;20094;-71
2023/03/07 07:23:05;;;;;;;13.63;7.80;;;;;;;8.33;98.12;92361.88;5060269;28;20155;-71
2023/03/07 07:25:31;;;;;;;14.43;7.20;;;;;;;8.43;97.33;92361.41;5065890;28;20460;-72
2023/03/07 07:27:58;;;;;;;13.85;7.03;;;;;;;8.52;96.74;92364.44;5069829;28;20076;-71
2023/03/07 07:30:25;;;;;;;13.00;7.45;;;;;;;8.66;95.67;92368.38;5069718;28;20091;-71
2023/03/07 07:32:52;;;;;;;11.55;5.20;;;;;;;8.67;93.14;92362.25;5069780;28;20056;-71
2023/03/07 07:35:21;;;;;;;10.38;5.70;;;;;;;8.69;93.35;92369.72;5069461;28;20045;-71
2023/03/07 07:37:48;;;;;;;10.85;5.35;;;;;;;8.73;92.98;92372.63;5069365;28;20048;-71
2023/03/07 07:40:15;;;;;;;10.55;5.22;;;;;;;8.84;93.23;92376.22;5069192;28;20094;-72
2023/03/07 07:42:42;;;;;;;8.23;4.90;;;;;;;8.87;91.62;92373.22;5069268;28;20056;-71
2023/03/07 07:45:09;;;;;;;11.60;4.68;;;;;;;8.81;90.50;92378.22;5069084;28;20132;-72
2023/03/07 07:47:39;;;;;;;7.28;4.30;;;;;;;8.85;89.82;92370.09;5069480;28;20041;-72
2023/03/07 07:50:06;;;;;;;9.73;3.80;;;;;;;8.86;88.57;92379.34;5069096;28;20129;-72
2023/03/07 07:52:34;;;;;;;7.00;4.15;;;;;;;8.86;87.77;92375.00;5069058;28;20079;-72
2023/03/07 07:55:01;;;;;;;7.50;4.13;;;;;;;8.87;87.84;92378.34;5068813;28;20094;-72
2023/03/07 07:57:27;;;;;;;8.00;4.40;;;;;;;8.95;88.19;92378.78;5061440;28;20088;-73
2023/03/07 07:59:54;;;;;;;7.82;4.88;;;;;;;9.00;87.57;92379.94;5063536;28;20048;-72
2023/03/07 08:02:21;;;;;;;8.77;5.32;;;;;;;9.12;87.32;92379.97;5069005;28;20083;-72
2023/03/07 08:04:48;;;;;;;8.07;4.07;;;;;;;9.17;87.24;92377.50;5068907;28;20055;-71
2023/03/07 08:07:15;;;;;;;9.35;4.78;;;;;;;9.25;88.40;92374.59;5069189;28;20138;-70
2023/03/07 08:09:43;;;;;;;7.72;4.38;;;;;;;9.36;86.83;92371.28;5069274;28;20072;-72
2023/03/07 08:12:12;;;;;;;10.48;5.45;;;;;;;9.47;87.14;92374.06;5068971;28;20045;-71
2023/03/07 08:14:39;;;;;;;11.10;5.45;;;;;;;9.62;86.32;92374.41;5069143;28;20040;-71
2023/03/07 08:17:06;;;;;;;10.07;4.85;;;;;;;9.68;85.94;92377.84;5069125;28;20067;-71
2023/03/07 08:19:32;;;;;;;7.80;4.22;;;;;;;9.76;83.35;92380.06;5069062;28;20462;-72
2023/03/07 08:21:59;;;;;;;10.52;4.90;;;;;;;9.90;82.09;92374.69;5068839;28;20044;-73
2023/03/07 08:24:26;;;;;;;9.82;5.03;;;;;;;9.97;82.41;92369.44;5061287;28;20518;-71
2023/03/07 08:26:54;;;;;;;10.65;6.32;;;;;;;10.07;82.79;92377.34;5067112;28;20098;-71
2023/03/07 08:29:21;;;;;;;13.18;6.40;;;;;;;10.18;83.04;92375.75;5068652;28;20037;-72
2023/03/07 08:31:50;;;;;;;10.65;5.93;;;;;;;10.16;80.62;92377.78;5068496;28;20098;-72
2023/03/07 08:34:17;;;;;;;7.63;4.97;;;;;;;10.26;81.34;92382.31;5068956;28;20481;-72
2023/03/07 08:36:44;;;;;;;9.80;4.20;;;;;;;10.21;80.20;92377.09;5068482;28;20322;-72
2023/03/07 08:39:11;;;;;;;9.13;4.22;;;;;;;10.33;79.83;92379.63;5068671;28;20045;-71
2023/03/07 08:41:41;;;;;;;7.45;3.30;;;;;;;10.42;78.51;92379.03;5068769;28;20386;-72
2023/03/07 08:44:09;;;;;;;7.38;4.10;;;;;;;10.52;78.45;92375.13;5068740;28;20106;-72
2023/03/07 08:46:35;;;;;;;7.43;3.83;;;;;;;10.63;78.41;92371.72;5063694;28;20053;-72
2023/03/07 08:49:02;;;;;;;9.10;3.42;;;;;;;10.43;76.66;92333.63;5048938;28;20130;-70
2023/03/07 08:51:30;;;;;;;5.60;3.00;;;;;;;10.62;74.81;92357.34;5048545;28;20049;-71
2023/03/07 08:53:58;;;;;;;5.97;2.92;;;;;;;10.52;76.75;92357.16;5048621;28;20041;-71
2023/03/07 08:56:24;;;;;;;8.68;4.13;;;;;;;10.57;76.90;92359.81;5048741;28;20087;-71
2023/03/07 08:58:52;;;;;;;6.70;3.50;;;;;;;10.64;76.14;92359.69;5048334;28;20512;-71
2023/03/07 09:01:21;;;;;;;6.53;3.85;;;;;;;10.84;76.99;92356.66;5048411;28;20154;-71
2023/03/07 09:03:47;;;;;;;7.15;3.40;;;;;;;11.08;76.05;92362.41;5063639;28;20645;-70
2023/03/07 09:06:18;;;;;;;6.93;3.70;;;;;;;11.35;74.18;92356.66;5071745;28;20145;-71
2023/03/07 09:08:46;;;;;;;7.93;3.50;;;;;;;11.46;71.75;92356.81;5071800;28;20090;-70
2023/03/07 09:11:13;;;;;;;6.10;3.40;;;;;;;11.40;71.30;92363.69;5071786;28;20048;-70
2023/03/07 09:13:39;;;;;;;12.25;3.80;;;;;;;11.42;71.63;92366.00;5071519;28;20445;-70
2023/03/07 09:16:07;;;;;;;7.15;4.03;;;;;;;11.53;72.86;92351.50;5071719;28;20098;-70
2023/03/07 09:18:35;;;;;;;6.40;3.63;;;;;;;11.67;70.12;92357.84;5071936;28;20041;-71
2023/03/07 09:21:03;;;;;;;5.35;3.08;;;;;;;11.56;67.84;92359.53;5072022;28;20129;-71
2023/03/07 09:23:30;;;;;;;5.05;2.50;;;;;;;11.48;67.35;92341.94;5071363;28;20040;-71
2023/03/07 09:25:59;;;;;;;6.20;3.45;;;;;;;11.58;68.91;92354.91;5071394;28;20052;-70
2023/03/07 09:28:26;;;;;;;5.78;2.70;;;;;;;11.66;69.00;92350.41;5071462;28;20094;-71
2023/03/07 09:30:53;;;;;;;8.02;3.22;;;;;;;11.80;68.84;92348.25;5071503;28;20075;-71
2023/03/07 09:33:20;;;;;;;5.22;2.58;;;;;;;12.02;68.75;92341.31;5071135;28;20493;-70
2023/03/07 09:35:48;;;;;;;5.40;2.75;;;;;;;12.33;66.81;92340.91;5071071;28;20078;-70
2023/03/07 09:38:15;;;;;;;5.68;2.40;;;;;;;12.61;65.87;92333.97;5057430;28;20197;-71
2023/03/07 09:40:45;;;;;;;6.30;2.75;;;;;;;12.83;64.80;92333.91;5059430;28;20696;-71
2023/03/07 09:43:19;;;;;;;5.82;3.10;;;;;;;13.08;65.03;92327.41;5071153;28;20094;-71
2023/03/07 09:45:59;;;;;;;5.18;2.80;;;;;;;13.36;61.26;92328.13;5071241;28;20057;-71
2023/03/07 09:48:47;;;;;;;4.10;1.95;;;;;;;13.33;58.80;92320.09;5071184;28;20057;-71
2023/03/07 09:51:20;;;;;;;5.07;2.38;;;;;;;13.57;60.83;92319.75;5071014;28;20052;-71
2023/03/07 09:53:51;;;;;;;4.68;2.70;;;;;;;13.90;60.35;92318.59;5071275;28;20044;-71
2023/03/07 09:56:24;;;;;;;5.07;2.58;;;;;;;14.07;59.73;92322.03;5070888;28;20045;-71
2023/03/07 09:58:59;;;;;;;3.75;1.98;;;;;;;14.22;58.16;92313.56;5071084;28;20044;-71
2023/03/07 10:01:30;;;;;;;5.57;2.20;;;;;;;14.08;56.67;92319.22;5071158;28;20088;-70
2023/03/07 10:04:01;;;;;;;3.75;2.17;;;;;;;13.98;56.82;92308.84;5071249;28;20412;-70
2023/03/07 10:06:35;;;;;;;3.92;1.98;;;;;;;13.99;57.22;92311.16;5044259;28;20092;-70
2023/03/07 10:09:04;;;;;;;7.30;2.47;;;;;;;14.08;58.27;92303.72;5054808;28;20076;-71
2023/03/07 10:11:48;;;;;;;4.38;2.55;;;;;;;14.18;58.87;92305.53;5060198;28;20444;-71
2023/03/07 10:14:29;;;;;;;6.43;2.47;;;;;;;14.21;58.66;92302.44;5070356;28;20519;-71
2023/03/07 10:17:02;;;;;;;5.38;3.08;;;;;;;14.25;57.08;92295.75;5069684;28;20098;-71
2023/03/07 10:19:36;;;;;;;3.75;2.15;;;;;;;14.42;56.60;92295.53;5065838;28;20093;-71
2023/03/07 10:22:13;;;;;;;5.07;2.45;;;;;;;14.50;55.93;92298.63;5070043;28;20098;-71
2023/03/07 10:24:54;;;;;;;6.53;2.40;;;;;;;14.51;56.68;92276.94;5069960;28;20044;-71
2023/03/07 10:27:25;;;;;;;4.20;2.55;;;;;;;14.70;57.10;92284.97;5070155;28;20105;-71
2023/03/07 10:29:54;;;;;;;6.45;2.65;;;;;;;14.83;56.09;92281.13;5069798;28;20040;-71
2023/03/07 10:32:28;;;;;;;6.57;2.90;;;;;;;14.68;53.67;92284.44;5070400;28;20071;-71
2023/03/07 10:35:00;;;;;;;4.07;2.00;;;;;;;14.40;54.40;92271.75;5070444;28;20053;-71
2023/03/07 10:37:42;;;;;;;4.90;2.40;;;;;;;14.23;54.82;92271.19;5045406;28;20053;-71
2023/03/07 10:40:18;;;;;;;7.18;2.28;;;;;;;14.25;55.36;92259.56;5051799;28;20061;-71
2023/03/07 10:42:44;;;;;;;6.22;2.45;;;;;;;14.33;56.50;92266.06;5070125;28;20044;-71
2023/03/07 10:45:13;;;;;;;6.07;2.50;;;;;;;14.55;56.59;92260.63;5061066;28;20557;-71
2023/03/07 10:47:40;;;;;;;4.75;2.15;;;;;;;14.56;55.02;92264.81;5069798;28;20048;-71
2023/03/07 10:50:23;;;;;;;6.57;2.50;;;;;;;14.33;54.26;92257.50;5070112;28;20048;-71
2023/03/07 10:52:53;;;;;;;9.55;3.05;;;;;;;14.24;55.83;92252.88;5046267;28;20056;-71
2023/03/07 10:55:37;;;;;;;5.50;2.50;;;;;;;14.23;56.10;92248.75;5070091;28;20044;-71
2023/03/07 10:58:22;;;;;;;3.47;2.22;;;;;;;14.35;56.78;92242.56;5069948;28;20417;-71
2023/03/07 11:01:15;;;;;;;7.35;3.00;;;;;;;14.42;55.62;92233.53;5044597;28;20044;-71
2023/03/07 11:03:46;;;;;;;6.00;2.60;;;;;;;14.34;54.92;92225.50;5070097;28;20385;-71
2023/03/07 11:06:33;;;;;;;4.22;2.10;;;;;;;14.18;55.03;92222.13;5069830;28;20447;-71
2023/03/07 11:09:13;;;;;;;3.20;1.52;;;;;;;14.42;53.06;92220.59;5069535;28;20420;-71
2023/03/07 11:11:46;;;;;;;4.70;2.40;;;;;;;14.34;54.08;92184.19;5069860;28;20462;-71
2023/03/07 11:14:13;;;;;;;7.55;2.63;;;;;;;14.63;54.76;92207.66;5069254;28;20041;-71
2023/03/07 11:16:41;;;;;;;5.13;2.70;;;;;;;14.88;52.85;92202.78;5061020;28;20418;-71
2023/03/07 11:19:32;;;;;;;5.10;2.42;;;;;;;15.07;53.33;92182.31;5065241;28;20098;-71
2023/03/07 11:22:02;;;;;;;6.13;2.53;;;;;;;15.08;51.69;92187.22;5069569;28;20098;-71
2023/03/07 11:24:33;;;;;;;3.33;1.40;;;;;;;14.96;50.61;92191.91;5069484;28;20060;-71
2023/03/07 11:27:00;;;;;;;3.25;1.83;;;;;;;15.09;49.16;92180.25;5069510;28;20052;-71
2023/03/07 11:29:28;;;;;;;5.93;2.25;;;;;;;15.13;49.25;92186.44;5069666;28;20103;-71
2023/03/07 11:32:03;;;;;;;7.18;2.75;;;;;;;15.11;49.28;92180.75;5069146;28;20412;-71
2023/03/07 11:34:40;;;;;;;2.70;1.63;;;;;;;14.75;47.58;92179.00;5069171;28;20083;-71
2023/03/07 11:37:23;;;;;;;4.03;1.70;;;;;;;14.73;49.57;92183.66;5068721;28;20044;-71
2023/03/07 11:40:03;;;;;;;5.03;1.92;;;;;;;14.68;48.22;92181.06;5067526;28;20049;-72